sensor_id;sensor_type;location;lat;lon;timestamp;P1;durP1;ratioP1;P2;durP2;ratioP2
29030;SDS011;16122;50.236;11.734;2022-11-21T00:01:33;1.30;;;1.20;;
29030;SDS011;16122;50.236;11.734;2022-11-21T00:03:59;1.87;;;1.37;;
29030;SDS011;16122;50.236;11.734;2022-11-21T00:06:25;1.33;;;1.23;;
29030;SDS011;16122;50.236;11.734;2022-11-21T00:08:51;1.87;;;1.60;;
29030;SDS011;16122;50.236;11.734;2022-11-21T00:11:17;1.63;;;1.50;;
29030;SDS011;16122;50.236;11.734;2022-11-21T00:13:43;2.00;;;1.37;;
29030;SDS011;16122;50.236;11.734;2022-11-21T00:16:13;1.37;;;1.27;;
29030;SDS011;16122;50.236;11.734;2022-11-21T00:18:40;1.10;;;1.10;;
29030;SDS011;16122;50.236;11.734;2022-11-21T00:21:10;1.10;;;1.00;;
29030;SDS011;16122;50.236;11.734;2022-11-21T00:23:41;1.33;;;1.23;;
29030;SDS011;16122;50.236;11.734;2022-11-21T00:26:08;0.90;;;0.90;;
29030;SDS011;16122;50.236;11.734;2022-11-21T00:28:35;1.17;;;0.90;;
29030;SDS011;16122;50.236;11.734;2022-11-21T00:31:01;1.30;;;1.20;;
29030;SDS011;16122;50.236;11.734;2022-11-21T00:33:28;1.47;;;1.37;;
29030;SDS011;16122;50.236;11.734;2022-11-21T00:35:54;1.10;;;1.00;;
29030;SDS011;16122;50.236;11.734;2022-11-21T00:38:20;1.13;;;1.03;;
29030;SDS011;16122;50.236;11.734;2022-11-21T00:40:48;1.17;;;0.97;;
29030;SDS011;16122;50.236;11.734;2022-11-21T00:43:14;0.97;;;0.93;;
29030;SDS011;16122;50.236;11.734;2022-11-21T00:45:40;1.10;;;1.00;;
29030;SDS011;16122;50.236;11.734;2022-11-21T00:48:06;0.90;;;0.80;;
29030;SDS011;16122;50.236;11.734;2022-11-21T00:50:32;1.10;;;1.00;;
29030;SDS011;16122;50.236;11.734;2022-11-21T00:52:58;2.57;;;1.00;;
29030;SDS011;16122;50.236;11.734;2022-11-21T00:55:24;1.20;;;1.10;;
29030;SDS011;16122;50.236;11.734;2022-11-21T00:57:50;1.10;;;0.90;;
29030;SDS011;16122;50.236;11.734;2022-11-21T01:00:16;1.40;;;1.10;;
29030;SDS011;16122;50.236;11.734;2022-11-21T01:02:42;1.10;;;1.00;;
29030;SDS011;16122;50.236;11.734;2022-11-21T01:05:08;1.00;;;0.90;;
29030;SDS011;16122;50.236;11.734;2022-11-21T01:07:34;1.20;;;1.10;;
29030;SDS011;16122;50.236;11.734;2022-11-21T01:10:00;1.20;;;1.10;;
29030;SDS011;16122;50.236;11.734;2022-11-21T01:12:26;1.27;;;1.10;;
29030;SDS011;16122;50.236;11.734;2022-11-21T01:14:52;1.10;;;1.00;;
29030;SDS011;16122;50.236;11.734;2022-11-21T01:17:18;1.00;;;0.90;;
29030;SDS011;16122;50.236;11.734;2022-11-21T01:19:43;1.20;;;1.10;;
29030;SDS011;16122;50.236;11.734;2022-11-21T01:22:09;1.67;;;1.13;;
29030;SDS011;16122;50.236;11.734;2022-11-21T01:24:35;1.00;;;0.90;;
29030;SDS011;16122;50.236;11.734;2022-11-21T01:27:01;0.80;;;0.80;;
29030;SDS011;16122;50.236;11.734;2022-11-21T01:29:27;1.10;;;1.00;;
29030;SDS011;16122;50.236;11.734;2022-11-21T01:31:53;1.40;;;1.30;;
29030;SDS011;16122;50.236;11.734;2022-11-21T01:34:18;1.00;;;0.90;;
29030;SDS011;16122;50.236;11.734;2022-11-21T01:36:44;1.10;;;1.00;;
29030;SDS011;16122;50.236;11.734;2022-11-21T01:39:10;1.60;;;1.20;;
29030;SDS011;16122;50.236;11.734;2022-11-21T01:41:38;0.97;;;0.87;;
29030;SDS011;16122;50.236;11.734;2022-11-21T01:44:13;1.10;;;0.93;;
29030;SDS011;16122;50.236;11.734;2022-11-21T01:47:10;1.57;;;0.90;;
29030;SDS011;16122;50.236;11.734;2022-11-21T01:49:37;1.83;;;1.07;;
29030;SDS011;16122;50.236;11.734;2022-11-21T01:55:04;1.23;;;1.13;;
29030;SDS011;16122;50.236;11.734;2022-11-21T01:57:40;0.97;;;0.90;;
29030;SDS011;16122;50.236;11.734;2022-11-21T02:00:11;1.33;;;0.90;;
29030;SDS011;16122;50.236;11.734;2022-11-21T02:02:46;1.07;;;0.97;;
29030;SDS011;16122;50.236;11.734;2022-11-21T02:05:23;1.27;;;0.90;;
29030;SDS011;16122;50.236;11.734;2022-11-21T02:07:53;1.17;;;1.07;;
29030;SDS011;16122;50.236;11.734;2022-11-21T02:10:22;1.07;;;0.80;;
29030;SDS011;16122;50.236;11.734;2022-11-21T02:12:49;0.80;;;0.80;;
29030;SDS011;16122;50.236;11.734;2022-11-21T02:15:16;0.70;;;0.70;;
29030;SDS011;16122;50.236;11.734;2022-11-21T02:17:44;1.13;;;1.03;;
29030;SDS011;16122;50.236;11.734;2022-11-21T02:20:11;1.63;;;1.10;;
29030;SDS011;16122;50.236;11.734;2022-11-21T02:25:23;0.80;;;0.80;;
29030;SDS011;16122;50.236;11.734;2022-11-21T02:27:53;0.87;;;0.80;;
29030;SDS011;16122;50.236;11.734;2022-11-21T02:30:26;1.20;;;0.80;;
29030;SDS011;16122;50.236;11.734;2022-11-21T02:32:54;1.53;;;1.10;;
29030;SDS011;16122;50.236;11.734;2022-11-21T02:35:20;2.07;;;0.80;;
29030;SDS011;16122;50.236;11.734;2022-11-21T02:37:46;1.00;;;0.90;;
29030;SDS011;16122;50.236;11.734;2022-11-21T02:40:17;0.73;;;0.73;;
29030;SDS011;16122;50.236;11.734;2022-11-21T02:45:37;1.57;;;1.10;;
29030;SDS011;16122;50.236;11.734;2022-11-21T02:48:05;0.97;;;0.70;;
29030;SDS011;16122;50.236;11.734;2022-11-21T02:50:32;0.80;;;0.70;;
29030;SDS011;16122;50.236;11.734;2022-11-21T02:53:02;1.63;;;0.87;;
29030;SDS011;16122;50.236;11.734;2022-11-21T02:55:30;0.90;;;0.90;;
29030;SDS011;16122;50.236;11.734;2022-11-21T02:57:56;1.00;;;0.83;;
29030;SDS011;16122;50.236;11.734;2022-11-21T03:00:22;0.97;;;0.80;;
29030;SDS011;16122;50.236;11.734;2022-11-21T03:02:48;1.60;;;1.00;;
29030;SDS011;16122;50.236;11.734;2022-11-21T03:05:16;1.00;;;0.90;;
29030;SDS011;16122;50.236;11.734;2022-11-21T03:07:43;1.30;;;0.80;;
29030;SDS011;16122;50.236;11.734;2022-11-21T03:10:09;0.87;;;0.87;;
29030;SDS011;16122;50.236;11.734;2022-11-21T03:12:36;0.80;;;0.80;;
29030;SDS011;16122;50.236;11.734;2022-11-21T03:15:06;2.30;;;0.80;;
29030;SDS011;16122;50.236;11.734;2022-11-21T03:17:33;0.90;;;0.80;;
29030;SDS011;16122;50.236;11.734;2022-11-21T03:19:59;1.27;;;0.80;;
29030;SDS011;16122;50.236;11.734;2022-11-21T03:22:25;2.07;;;1.10;;
29030;SDS011;16122;50.236;11.734;2022-11-21T03:24:51;0.93;;;0.80;;
29030;SDS011;16122;50.236;11.734;2022-11-21T03:27:17;0.93;;;0.83;;
29030;SDS011;16122;50.236;11.734;2022-11-21T03:29:43;2.20;;;1.13;;
29030;SDS011;16122;50.236;11.734;2022-11-21T03:32:09;1.07;;;0.80;;
29030;SDS011;16122;50.236;11.734;2022-11-21T03:34:34;0.93;;;0.80;;
29030;SDS011;16122;50.236;11.734;2022-11-21T03:37:00;1.00;;;0.80;;
29030;SDS011;16122;50.236;11.734;2022-11-21T03:39:27;1.13;;;0.90;;
29030;SDS011;16122;50.236;11.734;2022-11-21T03:41:54;4.27;;;0.90;;
29030;SDS011;16122;50.236;11.734;2022-11-21T03:44:20;1.33;;;1.23;;
29030;SDS011;16122;50.236;11.734;2022-11-21T03:46:46;1.07;;;0.93;;
29030;SDS011;16122;50.236;11.734;2022-11-21T03:49:12;0.90;;;0.80;;
29030;SDS011;16122;50.236;11.734;2022-11-21T03:51:40;0.87;;;0.73;;
29030;SDS011;16122;50.236;11.734;2022-11-21T03:54:06;2.30;;;0.70;;
29030;SDS011;16122;50.236;11.734;2022-11-21T03:56:32;1.80;;;0.80;;
29030;SDS011;16122;50.236;11.734;2022-11-21T03:58:59;1.13;;;1.00;;
29030;SDS011;16122;50.236;11.734;2022-11-21T04:01:25;1.10;;;0.87;;
29030;SDS011;16122;50.236;11.734;2022-11-21T04:03:51;1.07;;;0.90;;
29030;SDS011;16122;50.236;11.734;2022-11-21T04:06:17;1.00;;;0.87;;
29030;SDS011;16122;50.236;11.734;2022-11-21T04:08:45;1.00;;;0.90;;
29030;SDS011;16122;50.236;11.734;2022-11-21T04:11:11;3.70;;;1.00;;
29030;SDS011;16122;50.236;11.734;2022-11-21T04:13:36;1.00;;;0.70;;
29030;SDS011;16122;50.236;11.734;2022-11-21T04:16:03;1.33;;;0.90;;
29030;SDS011;16122;50.236;11.734;2022-11-21T04:18:29;0.80;;;0.70;;
29030;SDS011;16122;50.236;11.734;2022-11-21T04:21:00;1.00;;;0.70;;
29030;SDS011;16122;50.236;11.734;2022-11-21T04:23:27;1.63;;;0.80;;
29030;SDS011;16122;50.236;11.734;2022-11-21T04:25:53;2.10;;;1.00;;
29030;SDS011;16122;50.236;11.734;2022-11-21T04:28:20;1.20;;;0.70;;
29030;SDS011;16122;50.236;11.734;2022-11-21T04:30:46;1.00;;;0.60;;
29030;SDS011;16122;50.236;11.734;2022-11-21T04:33:13;0.70;;;0.60;;
29030;SDS011;16122;50.236;11.734;2022-11-21T04:35:39;3.77;;;1.00;;
29030;SDS011;16122;50.236;11.734;2022-11-21T04:38:07;1.33;;;0.70;;
29030;SDS011;16122;50.236;11.734;2022-11-21T04:40:33;1.10;;;0.70;;
29030;SDS011;16122;50.236;11.734;2022-11-21T04:43:00;0.90;;;0.77;;
29030;SDS011;16122;50.236;11.734;2022-11-21T04:45:26;1.57;;;0.70;;
29030;SDS011;16122;50.236;11.734;2022-11-21T04:47:52;1.00;;;0.63;;
29030;SDS011;16122;50.236;11.734;2022-11-21T04:50:18;0.90;;;0.70;;
29030;SDS011;16122;50.236;11.734;2022-11-21T04:52:50;0.80;;;0.80;;
29030;SDS011;16122;50.236;11.734;2022-11-21T04:55:21;0.87;;;0.70;;
29030;SDS011;16122;50.236;11.734;2022-11-21T04:57:49;0.90;;;0.60;;
29030;SDS011;16122;50.236;11.734;2022-11-21T05:00:16;1.10;;;0.60;;
29030;SDS011;16122;50.236;11.734;2022-11-21T05:02:43;1.40;;;0.73;;
29030;SDS011;16122;50.236;11.734;2022-11-21T05:05:09;0.77;;;0.60;;
29030;SDS011;16122;50.236;11.734;2022-11-21T05:07:36;0.67;;;0.53;;
29030;SDS011;16122;50.236;11.734;2022-11-21T05:10:03;0.80;;;0.70;;
29030;SDS011;16122;50.236;11.734;2022-11-21T05:12:32;0.70;;;0.60;;
29030;SDS011;16122;50.236;11.734;2022-11-21T05:15:17;1.27;;;0.80;;
29030;SDS011;16122;50.236;11.734;2022-11-21T05:17:43;0.60;;;0.50;;
29030;SDS011;16122;50.236;11.734;2022-11-21T05:20:09;1.13;;;0.70;;
29030;SDS011;16122;50.236;11.734;2022-11-21T05:22:35;1.63;;;0.60;;
29030;SDS011;16122;50.236;11.734;2022-11-21T05:25:01;1.27;;;0.60;;
29030;SDS011;16122;50.236;11.734;2022-11-21T05:27:27;4.53;;;0.80;;
29030;SDS011;16122;50.236;11.734;2022-11-21T05:29:52;1.30;;;0.80;;
29030;SDS011;16122;50.236;11.734;2022-11-21T05:32:19;1.13;;;0.93;;
29030;SDS011;16122;50.236;11.734;2022-11-21T05:34:45;2.13;;;0.70;;
29030;SDS011;16122;50.236;11.734;2022-11-21T05:37:11;1.73;;;1.00;;
29030;SDS011;16122;50.236;11.734;2022-11-21T05:39:36;1.30;;;0.70;;
29030;SDS011;16122;50.236;11.734;2022-11-21T05:42:02;2.80;;;0.70;;
29030;SDS011;16122;50.236;11.734;2022-11-21T05:44:28;2.30;;;0.80;;
29030;SDS011;16122;50.236;11.734;2022-11-21T05:46:54;0.80;;;0.70;;
29030;SDS011;16122;50.236;11.734;2022-11-21T05:49:20;1.53;;;0.83;;
29030;SDS011;16122;50.236;11.734;2022-11-21T05:51:46;1.30;;;0.70;;
29030;SDS011;16122;50.236;11.734;2022-11-21T05:54:12;1.17;;;0.63;;
29030;SDS011;16122;50.236;11.734;2022-11-21T05:56:39;1.43;;;0.70;;
29030;SDS011;16122;50.236;11.734;2022-11-21T05:59:05;0.70;;;0.70;;
29030;SDS011;16122;50.236;11.734;2022-11-21T06:01:32;0.97;;;0.73;;
29030;SDS011;16122;50.236;11.734;2022-11-21T06:04:16;1.93;;;0.90;;
29030;SDS011;16122;50.236;11.734;2022-11-21T06:06:43;3.30;;;0.70;;
29030;SDS011;16122;50.236;11.734;2022-11-21T06:09:08;3.40;;;0.70;;
29030;SDS011;16122;50.236;11.734;2022-11-21T06:11:34;1.93;;;0.80;;
29030;SDS011;16122;50.236;11.734;2022-11-21T06:14:00;1.63;;;0.70;;
29030;SDS011;16122;50.236;11.734;2022-11-21T06:16:26;1.10;;;0.70;;
29030;SDS011;16122;50.236;11.734;2022-11-21T06:18:52;0.70;;;0.60;;
29030;SDS011;16122;50.236;11.734;2022-11-21T06:21:22;2.20;;;0.80;;
29030;SDS011;16122;50.236;11.734;2022-11-21T06:23:50;1.20;;;0.70;;
29030;SDS011;16122;50.236;11.734;2022-11-21T06:26:19;2.60;;;0.80;;
29030;SDS011;16122;50.236;11.734;2022-11-21T06:28:46;1.03;;;0.60;;
29030;SDS011;16122;50.236;11.734;2022-11-21T06:31:14;0.80;;;0.70;;
29030;SDS011;16122;50.236;11.734;2022-11-21T06:33:44;0.87;;;0.60;;
29030;SDS011;16122;50.236;11.734;2022-11-21T06:36:12;1.03;;;0.70;;
29030;SDS011;16122;50.236;11.734;2022-11-21T06:38:39;0.80;;;0.70;;
29030;SDS011;16122;50.236;11.734;2022-11-21T06:41:16;1.10;;;0.80;;
29030;SDS011;16122;50.236;11.734;2022-11-21T06:43:45;0.70;;;0.60;;
29030;SDS011;16122;50.236;11.734;2022-11-21T06:46:10;2.83;;;0.90;;
29030;SDS011;16122;50.236;11.734;2022-11-21T06:48:37;1.60;;;0.70;;
29030;SDS011;16122;50.236;11.734;2022-11-21T06:51:04;2.90;;;0.80;;
29030;SDS011;16122;50.236;11.734;2022-11-21T06:53:54;0.73;;;0.60;;
29030;SDS011;16122;50.236;11.734;2022-11-21T06:56:25;0.73;;;0.70;;
29030;SDS011;16122;50.236;11.734;2022-11-21T06:58:53;1.73;;;0.60;;
29030;SDS011;16122;50.236;11.734;2022-11-21T07:01:19;0.90;;;0.70;;
29030;SDS011;16122;50.236;11.734;2022-11-21T07:03:44;0.80;;;0.80;;
29030;SDS011;16122;50.236;11.734;2022-11-21T07:06:10;1.03;;;0.60;;
29030;SDS011;16122;50.236;11.734;2022-11-21T07:08:36;3.70;;;0.60;;
29030;SDS011;16122;50.236;11.734;2022-11-21T07:11:06;1.77;;;0.80;;
29030;SDS011;16122;50.236;11.734;2022-11-21T07:13:36;3.60;;;0.60;;
29030;SDS011;16122;50.236;11.734;2022-11-21T07:16:03;1.60;;;0.60;;
29030;SDS011;16122;50.236;11.734;2022-11-21T07:18:31;1.23;;;0.70;;
29030;SDS011;16122;50.236;11.734;2022-11-21T07:21:00;0.70;;;0.60;;
29030;SDS011;16122;50.236;11.734;2022-11-21T07:23:30;1.40;;;0.90;;
29030;SDS011;16122;50.236;11.734;2022-11-21T07:26:00;0.70;;;0.53;;
29030;SDS011;16122;50.236;11.734;2022-11-21T07:28:30;2.00;;;1.00;;
29030;SDS011;16122;50.236;11.734;2022-11-21T07:30:57;0.97;;;0.90;;
29030;SDS011;16122;50.236;11.734;2022-11-21T07:33:24;0.70;;;0.60;;
29030;SDS011;16122;50.236;11.734;2022-11-21T07:35:50;1.53;;;0.90;;
29030;SDS011;16122;50.236;11.734;2022-11-21T07:38:16;0.60;;;0.50;;
29030;SDS011;16122;50.236;11.734;2022-11-21T07:40:42;0.70;;;0.63;;
29030;SDS011;16122;50.236;11.734;2022-11-21T07:43:09;0.70;;;0.60;;
29030;SDS011;16122;50.236;11.734;2022-11-21T07:45:35;0.70;;;0.60;;
29030;SDS011;16122;50.236;11.734;2022-11-21T07:48:02;2.40;;;0.70;;
29030;SDS011;16122;50.236;11.734;2022-11-21T07:50:30;1.27;;;0.60;;
29030;SDS011;16122;50.236;11.734;2022-11-21T07:52:59;0.70;;;0.60;;
29030;SDS011;16122;50.236;11.734;2022-11-21T07:55:26;1.10;;;0.70;;
29030;SDS011;16122;50.236;11.734;2022-11-21T07:57:59;0.60;;;0.60;;
29030;SDS011;16122;50.236;11.734;2022-11-21T08:00:29;0.70;;;0.53;;
29030;SDS011;16122;50.236;11.734;2022-11-21T08:02:56;0.70;;;0.70;;
29030;SDS011;16122;50.236;11.734;2022-11-21T08:05:22;0.93;;;0.70;;
29030;SDS011;16122;50.236;11.734;2022-11-21T08:07:48;0.90;;;0.77;;
29030;SDS011;16122;50.236;11.734;2022-11-21T08:10:14;1.53;;;0.70;;
29030;SDS011;16122;50.236;11.734;2022-11-21T08:12:40;1.23;;;0.60;;
29030;SDS011;16122;50.236;11.734;2022-11-21T08:15:06;0.60;;;0.60;;
29030;SDS011;16122;50.236;11.734;2022-11-21T08:17:33;0.63;;;0.50;;
29030;SDS011;16122;50.236;11.734;2022-11-21T08:19:58;0.80;;;0.70;;
29030;SDS011;16122;50.236;11.734;2022-11-21T08:22:25;0.87;;;0.60;;
29030;SDS011;16122;50.236;11.734;2022-11-21T08:24:51;0.93;;;0.50;;
29030;SDS011;16122;50.236;11.734;2022-11-21T08:27:20;0.80;;;0.60;;
29030;SDS011;16122;50.236;11.734;2022-11-21T08:29:46;1.20;;;0.73;;
29030;SDS011;16122;50.236;11.734;2022-11-21T08:32:13;1.67;;;0.60;;
29030;SDS011;16122;50.236;11.734;2022-11-21T08:34:39;1.13;;;0.60;;
29030;SDS011;16122;50.236;11.734;2022-11-21T08:37:04;1.07;;;0.57;;
29030;SDS011;16122;50.236;11.734;2022-11-21T08:39:30;0.70;;;0.70;;
29030;SDS011;16122;50.236;11.734;2022-11-21T08:41:56;0.50;;;0.50;;
29030;SDS011;16122;50.236;11.734;2022-11-21T08:44:32;0.70;;;0.60;;
29030;SDS011;16122;50.236;11.734;2022-11-21T08:46:58;0.50;;;0.50;;
29030;SDS011;16122;50.236;11.734;2022-11-21T08:49:25;0.80;;;0.60;;
29030;SDS011;16122;50.236;11.734;2022-11-21T08:51:52;0.67;;;0.67;;
29030;SDS011;16122;50.236;11.734;2022-11-21T08:54:18;0.70;;;0.60;;
29030;SDS011;16122;50.236;11.734;2022-11-21T08:56:45;0.60;;;0.60;;
29030;SDS011;16122;50.236;11.734;2022-11-21T08:59:11;0.80;;;0.57;;
29030;SDS011;16122;50.236;11.734;2022-11-21T09:01:37;0.87;;;0.50;;
29030;SDS011;16122;50.236;11.734;2022-11-21T09:04:03;0.70;;;0.60;;
29030;SDS011;16122;50.236;11.734;2022-11-21T09:06:29;0.90;;;0.60;;
29030;SDS011;16122;50.236;11.734;2022-11-21T09:08:55;0.90;;;0.60;;
29030;SDS011;16122;50.236;11.734;2022-11-21T09:11:21;0.83;;;0.60;;
29030;SDS011;16122;50.236;11.734;2022-11-21T09:13:49;0.50;;;0.43;;
29030;SDS011;16122;50.236;11.734;2022-11-21T09:16:35;0.80;;;0.60;;
29030;SDS011;16122;50.236;11.734;2022-11-21T09:19:20;0.70;;;0.60;;
29030;SDS011;16122;50.236;11.734;2022-11-21T09:21:49;0.80;;;0.60;;
29030;SDS011;16122;50.236;11.734;2022-11-21T09:24:16;0.60;;;0.50;;
29030;SDS011;16122;50.236;11.734;2022-11-21T09:26:43;0.60;;;0.53;;
29030;SDS011;16122;50.236;11.734;2022-11-21T09:29:09;0.60;;;0.60;;
29030;SDS011;16122;50.236;11.734;2022-11-21T09:31:36;1.33;;;0.60;;
29030;SDS011;16122;50.236;11.734;2022-11-21T09:34:02;0.83;;;0.70;;
29030;SDS011;16122;50.236;11.734;2022-11-21T09:36:28;0.70;;;0.67;;
29030;SDS011;16122;50.236;11.734;2022-11-21T09:38:54;0.80;;;0.60;;
29030;SDS011;16122;50.236;11.734;2022-11-21T09:47:01;0.50;;;0.50;;
29030;SDS011;16122;50.236;11.734;2022-11-21T09:50:34;0.60;;;0.50;;
29030;SDS011;16122;50.236;11.734;2022-11-21T09:55:20;0.60;;;0.50;;
29030;SDS011;16122;50.236;11.734;2022-11-21T09:57:49;0.60;;;0.60;;
29030;SDS011;16122;50.236;11.734;2022-11-21T10:00:18;0.80;;;0.77;;
29030;SDS011;16122;50.236;11.734;2022-11-21T10:02:46;1.43;;;0.60;;
29030;SDS011;16122;50.236;11.734;2022-11-21T10:05:14;0.53;;;0.47;;
29030;SDS011;16122;50.236;11.734;2022-11-21T10:07:40;0.60;;;0.50;;
29030;SDS011;16122;50.236;11.734;2022-11-21T10:10:14;0.90;;;0.67;;
29030;SDS011;16122;50.236;11.734;2022-11-21T10:26:37;0.60;;;0.57;;
29030;SDS011;16122;50.236;11.734;2022-11-21T10:29:09;0.63;;;0.60;;
29030;SDS011;16122;50.236;11.734;2022-11-21T10:31:57;1.27;;;0.90;;
29030;SDS011;16122;50.236;11.734;2022-11-21T10:34:29;0.70;;;0.60;;
29030;SDS011;16122;50.236;11.734;2022-11-21T10:37:10;0.60;;;0.50;;
29030;SDS011;16122;50.236;11.734;2022-11-21T10:39:48;0.60;;;0.50;;
29030;SDS011;16122;50.236;11.734;2022-11-21T10:44:53;0.60;;;0.50;;
29030;SDS011;16122;50.236;11.734;2022-11-21T10:47:38;1.10;;;0.70;;
29030;SDS011;16122;50.236;11.734;2022-11-21T10:53:21;0.60;;;0.60;;
29030;SDS011;16122;50.236;11.734;2022-11-21T10:56:08;0.50;;;0.50;;
29030;SDS011;16122;50.236;11.734;2022-11-21T10:58:47;0.70;;;0.60;;
29030;SDS011;16122;50.236;11.734;2022-11-21T11:01:22;0.90;;;0.60;;
29030;SDS011;16122;50.236;11.734;2022-11-21T11:04:03;0.70;;;0.60;;
29030;SDS011;16122;50.236;11.734;2022-11-21T11:06:31;1.07;;;0.70;;
29030;SDS011;16122;50.236;11.734;2022-11-21T11:08:57;0.80;;;0.50;;
29030;SDS011;16122;50.236;11.734;2022-11-21T11:11:23;1.60;;;0.73;;
29030;SDS011;16122;50.236;11.734;2022-11-21T11:13:59;6.00;;;1.43;;
29030;SDS011;16122;50.236;11.734;2022-11-21T11:16:30;11.77;;;5.30;;
29030;SDS011;16122;50.236;11.734;2022-11-21T11:19:05;23.63;;;8.03;;
29030;SDS011;16122;50.236;11.734;2022-11-21T11:21:41;28.13;;;11.30;;
29030;SDS011;16122;50.236;11.734;2022-11-21T11:26:34;30.83;;;14.40;;
29030;SDS011;16122;50.236;11.734;2022-11-21T11:29:30;43.37;;;17.17;;
29030;SDS011;16122;50.236;11.734;2022-11-21T11:32:20;39.53;;;19.70;;
29030;SDS011;16122;50.236;11.734;2022-11-21T11:34:58;33.80;;;17.97;;
29030;SDS011;16122;50.236;11.734;2022-11-21T11:37:39;54.13;;;22.87;;
29030;SDS011;16122;50.236;11.734;2022-11-21T11:43:01;47.10;;;22.77;;
29030;SDS011;16122;50.236;11.734;2022-11-21T11:45:59;49.63;;;22.50;;
29030;SDS011;16122;50.236;11.734;2022-11-21T11:52:16;47.23;;;21.67;;
29030;SDS011;16122;50.236;11.734;2022-11-21T11:54:47;39.13;;;19.70;;
29030;SDS011;16122;50.236;11.734;2022-11-21T11:57:17;37.43;;;19.60;;
29030;SDS011;16122;50.236;11.734;2022-11-21T11:59:45;43.50;;;20.10;;
29030;SDS011;16122;50.236;11.734;2022-11-21T12:02:26;42.87;;;18.90;;
29030;SDS011;16122;50.236;11.734;2022-11-21T12:05:07;43.83;;;20.30;;
29030;SDS011;16122;50.236;11.734;2022-11-21T12:07:39;36.90;;;19.53;;
29030;SDS011;16122;50.236;11.734;2022-11-21T12:10:12;39.60;;;18.87;;
29030;SDS011;16122;50.236;11.734;2022-11-21T12:13:02;39.67;;;19.37;;
29030;SDS011;16122;50.236;11.734;2022-11-21T12:15:40;47.03;;;18.53;;
29030;SDS011;16122;50.236;11.734;2022-11-21T12:32:16;34.43;;;15.77;;
29030;SDS011;16122;50.236;11.734;2022-11-21T12:51:42;36.20;;;16.20;;
29030;SDS011;16122;50.236;11.734;2022-11-21T12:57:25;26.10;;;14.30;;
29030;SDS011;16122;50.236;11.734;2022-11-21T13:05:45;30.27;;;13.83;;
29030;SDS011;16122;50.236;11.734;2022-11-21T13:08:15;32.30;;;13.83;;
29030;SDS011;16122;50.236;11.734;2022-11-21T13:10:51;32.13;;;13.37;;
29030;SDS011;16122;50.236;11.734;2022-11-21T13:13:43;25.53;;;12.50;;
29030;SDS011;16122;50.236;11.734;2022-11-21T13:16:19;21.13;;;11.90;;
29030;SDS011;16122;50.236;11.734;2022-11-21T13:19:22;24.70;;;13.40;;
29030;SDS011;16122;50.236;11.734;2022-11-21T13:21:50;25.40;;;11.93;;
29030;SDS011;16122;50.236;11.734;2022-11-21T13:27:26;20.43;;;11.13;;
29030;SDS011;16122;50.236;11.734;2022-11-21T13:38:05;19.97;;;10.90;;
29030;SDS011;16122;50.236;11.734;2022-11-21T13:45:48;16.90;;;9.67;;
29030;SDS011;16122;50.236;11.734;2022-11-21T14:04:56;20.57;;;8.53;;
29030;SDS011;16122;50.236;11.734;2022-11-21T14:07:33;14.77;;;7.73;;
29030;SDS011;16122;50.236;11.734;2022-11-21T14:10:42;13.43;;;8.20;;
29030;SDS011;16122;50.236;11.734;2022-11-21T14:12:49;15.40;;;6.93;;
29030;SDS011;16122;50.236;11.734;2022-11-21T14:15:23;15.53;;;7.00;;
29030;SDS011;16122;50.236;11.734;2022-11-21T14:18:00;14.20;;;6.33;;
29030;SDS011;16122;50.236;11.734;2022-11-21T14:23:18;17.57;;;6.90;;
29030;SDS011;16122;50.236;11.734;2022-11-21T14:26:10;14.43;;;5.97;;
29030;SDS011;16122;50.236;11.734;2022-11-21T14:28:39;9.97;;;6.27;;
29030;SDS011;16122;50.236;11.734;2022-11-21T14:31:08;16.70;;;6.43;;
29030;SDS011;16122;50.236;11.734;2022-11-21T14:33:36;14.03;;;6.17;;
29030;SDS011;16122;50.236;11.734;2022-11-21T14:36:19;13.97;;;5.10;;
29030;SDS011;16122;50.236;11.734;2022-11-21T14:38:52;12.90;;;6.33;;
29030;SDS011;16122;50.236;11.734;2022-11-21T14:41:25;10.10;;;5.00;;
29030;SDS011;16122;50.236;11.734;2022-11-21T14:46:21;10.20;;;5.30;;
29030;SDS011;16122;50.236;11.734;2022-11-21T14:48:48;7.87;;;4.50;;
29030;SDS011;16122;50.236;11.734;2022-11-21T14:51:16;10.73;;;5.53;;
29030;SDS011;16122;50.236;11.734;2022-11-21T14:53:45;9.17;;;4.80;;
29030;SDS011;16122;50.236;11.734;2022-11-21T14:56:22;10.10;;;5.67;;
29030;SDS011;16122;50.236;11.734;2022-11-21T14:58:50;9.60;;;4.90;;
29030;SDS011;16122;50.236;11.734;2022-11-21T15:01:24;12.30;;;5.47;;
29030;SDS011;16122;50.236;11.734;2022-11-21T15:04:03;10.53;;;4.67;;
29030;SDS011;16122;50.236;11.734;2022-11-21T15:06:33;11.53;;;4.87;;
29030;SDS011;16122;50.236;11.734;2022-11-21T15:09:05;11.50;;;4.80;;
29030;SDS011;16122;50.236;11.734;2022-11-21T15:11:36;10.50;;;4.53;;
29030;SDS011;16122;50.236;11.734;2022-11-21T15:14:52;8.70;;;4.60;;
29030;SDS011;16122;50.236;11.734;2022-11-21T15:16:54;6.87;;;3.53;;
29030;SDS011;16122;50.236;11.734;2022-11-21T15:19:25;12.43;;;6.10;;
29030;SDS011;16122;50.236;11.734;2022-11-21T15:21:54;15.23;;;5.90;;
29030;SDS011;16122;50.236;11.734;2022-11-21T15:24:28;6.50;;;4.20;;
29030;SDS011;16122;50.236;11.734;2022-11-21T15:26:57;10.70;;;4.30;;
29030;SDS011;16122;50.236;11.734;2022-11-21T15:29:23;8.33;;;4.57;;
29030;SDS011;16122;50.236;11.734;2022-11-21T15:32:08;9.27;;;4.53;;
29030;SDS011;16122;50.236;11.734;2022-11-21T15:34:36;6.10;;;3.07;;
29030;SDS011;16122;50.236;11.734;2022-11-21T15:37:20;5.97;;;3.53;;
29030;SDS011;16122;50.236;11.734;2022-11-21T15:39:48;7.43;;;4.20;;
29030;SDS011;16122;50.236;11.734;2022-11-21T15:45:05;10.10;;;4.77;;
29030;SDS011;16122;50.236;11.734;2022-11-21T15:47:49;7.53;;;3.93;;
29030;SDS011;16122;50.236;11.734;2022-11-21T15:50:15;5.40;;;3.80;;
29030;SDS011;16122;50.236;11.734;2022-11-21T15:52:48;7.57;;;3.63;;
29030;SDS011;16122;50.236;11.734;2022-11-21T15:55:20;7.70;;;3.63;;
29030;SDS011;16122;50.236;11.734;2022-11-21T15:57:48;6.30;;;4.00;;
29030;SDS011;16122;50.236;11.734;2022-11-21T16:00:14;6.47;;;3.23;;
29030;SDS011;16122;50.236;11.734;2022-11-21T16:02:41;9.23;;;4.00;;
29030;SDS011;16122;50.236;11.734;2022-11-21T16:05:10;6.30;;;3.40;;
29030;SDS011;16122;50.236;11.734;2022-11-21T16:07:38;6.23;;;3.13;;
29030;SDS011;16122;50.236;11.734;2022-11-21T16:10:04;7.53;;;3.50;;
29030;SDS011;16122;50.236;11.734;2022-11-21T16:12:31;6.67;;;3.13;;
29030;SDS011;16122;50.236;11.734;2022-11-21T16:14:56;5.57;;;2.90;;
29030;SDS011;16122;50.236;11.734;2022-11-21T16:17:22;6.50;;;3.07;;
29030;SDS011;16122;50.236;11.734;2022-11-21T16:19:48;5.97;;;3.47;;
29030;SDS011;16122;50.236;11.734;2022-11-21T16:22:14;5.10;;;2.70;;
29030;SDS011;16122;50.236;11.734;2022-11-21T16:24:41;3.50;;;2.40;;
29030;SDS011;16122;50.236;11.734;2022-11-21T16:27:06;5.00;;;3.20;;
29030;SDS011;16122;50.236;11.734;2022-11-21T16:29:32;3.37;;;2.27;;
29030;SDS011;16122;50.236;11.734;2022-11-21T16:31:58;9.50;;;3.37;;
29030;SDS011;16122;50.236;11.734;2022-11-21T16:34:25;3.40;;;2.47;;
29030;SDS011;16122;50.236;11.734;2022-11-21T16:36:51;7.87;;;3.77;;
29030;SDS011;16122;50.236;11.734;2022-11-21T16:39:18;4.43;;;2.70;;
29030;SDS011;16122;50.236;11.734;2022-11-21T16:41:44;5.03;;;2.53;;
29030;SDS011;16122;50.236;11.734;2022-11-21T16:44:12;6.10;;;2.80;;
29030;SDS011;16122;50.236;11.734;2022-11-21T16:46:42;6.63;;;2.70;;
29030;SDS011;16122;50.236;11.734;2022-11-21T16:49:11;8.53;;;2.53;;
29030;SDS011;16122;50.236;11.734;2022-11-21T16:51:37;7.87;;;3.13;;